Terminal Aerodrome Forecast
Issued by NWS

Home | Current Version | Previous Version | Text Only | Print | Product List | Glossary On
Versions: 1 2 3 4 5 6 7 8 9 10 11 12 13 14 15 16 17 18 19 20 21 22 23 24 25 26 27 28 29 30 31 32 33 34 35 36 37 38 39 40 41 42 43 44 45 46 47 48 49 50
000
FTUS44 KHGX 282333
TAFIAH
TAF
KIAH 282333Z 2900/3006 33008KT P6SM BKN007 OVC012
     FM290300 34004KT 6SM BR BKN007 BKN015
     FM290900 VRB03KT 3SM BR OVC007
      TEMPO 2910/2912 1SM BR OVC003
     FM291700 VRB03KT 6SM BR OVC012
     FM292100 VRB03KT P6SM BKN020
     FM300000 09005KT P6SM BKN250=

USA.gov is the U.S. government's official web portal to all federal, state and local government web resources and services.